sensor_id;sensor_type;location;lat;lon;timestamp;pressure;altitude;pressure_sealevel;temperature;humidity
33781;BME280;20097;50.832;19.100;2023-08-24T00:03:13;98565.84;;;15.34;100.00
33781;BME280;20097;50.832;19.100;2023-08-24T00:08:18;98550.44;;;15.25;100.00
33781;BME280;20097;50.832;19.100;2023-08-24T00:13:22;98559.09;;;15.19;100.00
33781;BME280;20097;50.832;19.100;2023-08-24T00:18:27;98549.97;;;15.14;100.00
33781;BME280;20097;50.832;19.100;2023-08-24T00:23:31;98553.63;;;15.13;100.00
33781;BME280;20097;50.832;19.100;2023-08-24T00:28:36;98558.47;;;15.10;100.00
33781;BME280;20097;50.832;19.100;2023-08-24T00:33:41;98553.81;;;15.12;100.00
33781;BME280;20097;50.832;19.100;2023-08-24T00:38:46;98558.66;;;15.08;100.00
33781;BME280;20097;50.832;19.100;2023-08-24T00:43:53;98557.41;;;15.04;100.00
33781;BME280;20097;50.832;19.100;2023-08-24T00:48:59;98559.22;;;14.97;100.00
33781;BME280;20097;50.832;19.100;2023-08-24T00:54:03;98560.16;;;14.90;100.00
33781;BME280;20097;50.832;19.100;2023-08-24T00:59:08;98557.34;;;14.91;100.00
33781;BME280;20097;50.832;19.100;2023-08-24T01:04:14;98557.06;;;14.80;100.00
33781;BME280;20097;50.832;19.100;2023-08-24T01:09:18;98562.72;;;14.77;100.00
33781;BME280;20097;50.832;19.100;2023-08-24T01:14:28;98560.28;;;14.75;100.00
33781;BME280;20097;50.832;19.100;2023-08-24T01:19:37;98563.13;;;14.74;100.00
33781;BME280;20097;50.832;19.100;2023-08-24T01:24:47;98551.78;;;14.73;100.00
33781;BME280;20097;50.832;19.100;2023-08-24T01:29:53;98552.16;;;14.70;100.00
33781;BME280;20097;50.832;19.100;2023-08-24T01:35:03;98553.19;;;14.69;100.00
33781;BME280;20097;50.832;19.100;2023-08-24T01:40:12;98547.69;;;14.64;100.00
33781;BME280;20097;50.832;19.100;2023-08-24T01:45:20;98550.53;;;14.63;100.00
33781;BME280;20097;50.832;19.100;2023-08-24T01:50:26;98546.03;;;14.57;100.00
33781;BME280;20097;50.832;19.100;2023-08-24T01:55:31;98542.16;;;14.53;100.00
33781;BME280;20097;50.832;19.100;2023-08-24T02:00:37;98540.56;;;14.52;100.00
33781;BME280;20097;50.832;19.100;2023-08-24T02:05:41;98544.34;;;14.49;100.00
33781;BME280;20097;50.832;19.100;2023-08-24T02:10:45;98534.44;;;14.45;100.00
33781;BME280;20097;50.832;19.100;2023-08-24T02:15:51;98523.75;;;14.46;100.00
33781;BME280;20097;50.832;19.100;2023-08-24T02:21:07;98531.41;;;14.48;100.00
33781;BME280;20097;50.832;19.100;2023-08-24T02:26:13;98530.63;;;14.47;100.00
33781;BME280;20097;50.832;19.100;2023-08-24T02:31:18;98527.38;;;14.45;100.00
33781;BME280;20097;50.832;19.100;2023-08-24T02:36:23;98529.13;;;14.38;100.00
33781;BME280;20097;50.832;19.100;2023-08-24T02:41:27;98525.28;;;14.34;100.00
33781;BME280;20097;50.832;19.100;2023-08-24T02:46:35;98522.78;;;14.26;100.00
33781;BME280;20097;50.832;19.100;2023-08-24T02:51:39;98524.41;;;14.27;100.00
33781;BME280;20097;50.832;19.100;2023-08-24T02:56:43;98526.03;;;14.28;100.00
33781;BME280;20097;50.832;19.100;2023-08-24T03:01:50;98519.59;;;14.31;100.00
33781;BME280;20097;50.832;19.100;2023-08-24T03:06:54;98526.09;;;14.35;100.00
33781;BME280;20097;50.832;19.100;2023-08-24T03:11:59;98522.72;;;14.41;100.00
33781;BME280;20097;50.832;19.100;2023-08-24T03:17:04;98530.63;;;14.47;100.00
33781;BME280;20097;50.832;19.100;2023-08-24T03:22:10;98526.41;;;14.53;100.00
33781;BME280;20097;50.832;19.100;2023-08-24T03:27:14;98529.03;;;14.53;100.00
33781;BME280;20097;50.832;19.100;2023-08-24T03:32:20;98531.03;;;14.51;100.00
33781;BME280;20097;50.832;19.100;2023-08-24T03:37:24;98535.66;;;14.42;100.00
33781;BME280;20097;50.832;19.100;2023-08-24T03:42:30;98542.66;;;14.35;100.00
33781;BME280;20097;50.832;19.100;2023-08-24T03:47:36;98540.81;;;14.29;100.00
33781;BME280;20097;50.832;19.100;2023-08-24T03:52:40;98542.19;;;14.25;100.00
33781;BME280;20097;50.832;19.100;2023-08-24T03:57:45;98550.22;;;14.24;100.00
33781;BME280;20097;50.832;19.100;2023-08-24T04:02:51;98540.91;;;14.21;100.00
33781;BME280;20097;50.832;19.100;2023-08-24T04:08:00;98548.16;;;14.19;100.00
33781;BME280;20097;50.832;19.100;2023-08-24T04:13:05;98550.78;;;14.19;100.00
33781;BME280;20097;50.832;19.100;2023-08-24T04:18:13;98543.69;;;14.20;100.00
33781;BME280;20097;50.832;19.100;2023-08-24T04:23:17;98541.25;;;14.18;100.00
33781;BME280;20097;50.832;19.100;2023-08-24T04:28:21;98533.72;;;14.30;100.00
33781;BME280;20097;50.832;19.100;2023-08-24T04:33:27;98544.75;;;14.46;100.00
33781;BME280;20097;50.832;19.100;2023-08-24T04:38:32;98545.63;;;14.53;100.00
33781;BME280;20097;50.832;19.100;2023-08-24T04:43:36;98540.84;;;14.63;100.00
33781;BME280;20097;50.832;19.100;2023-08-24T04:48:41;98548.41;;;14.79;100.00
33781;BME280;20097;50.832;19.100;2023-08-24T04:53:46;98549.88;;;14.95;100.00
33781;BME280;20097;50.832;19.100;2023-08-24T04:58:53;98551.97;;;15.12;100.00
33781;BME280;20097;50.832;19.100;2023-08-24T05:04:02;98554.09;;;15.30;100.00
33781;BME280;20097;50.832;19.100;2023-08-24T05:09:06;98558.22;;;15.46;100.00
33781;BME280;20097;50.832;19.100;2023-08-24T05:14:11;98560.06;;;15.58;100.00
33781;BME280;20097;50.832;19.100;2023-08-24T05:19:18;98566.41;;;15.77;100.00
33781;BME280;20097;50.832;19.100;2023-08-24T05:24:23;98561.16;;;15.90;100.00
33781;BME280;20097;50.832;19.100;2023-08-24T05:29:27;98567.84;;;16.05;100.00
33781;BME280;20097;50.832;19.100;2023-08-24T05:34:32;98570.69;;;16.23;100.00
33781;BME280;20097;50.832;19.100;2023-08-24T05:39:36;98562.78;;;16.43;100.00
33781;BME280;20097;50.832;19.100;2023-08-24T05:44:41;98562.78;;;16.69;100.00
33781;BME280;20097;50.832;19.100;2023-08-24T05:49:46;98571.47;;;16.89;100.00
33781;BME280;20097;50.832;19.100;2023-08-24T05:54:50;98580.31;;;17.14;100.00
33781;BME280;20097;50.832;19.100;2023-08-24T05:59:54;98568.03;;;17.39;100.00
33781;BME280;20097;50.832;19.100;2023-08-24T06:05:00;98572.63;;;17.63;100.00
33781;BME280;20097;50.832;19.100;2023-08-24T06:10:05;98565.19;;;17.85;100.00
33781;BME280;20097;50.832;19.100;2023-08-24T06:15:10;98572.53;;;18.08;100.00
33781;BME280;20097;50.832;19.100;2023-08-24T06:20:18;98577.19;;;18.37;100.00
33781;BME280;20097;50.832;19.100;2023-08-24T06:25:23;98582.66;;;18.66;100.00
33781;BME280;20097;50.832;19.100;2023-08-24T06:30:27;98584.44;;;18.90;100.00
33781;BME280;20097;50.832;19.100;2023-08-24T06:35:33;98592.69;;;19.19;100.00
33781;BME280;20097;50.832;19.100;2023-08-24T06:40:37;98581.69;;;19.40;100.00
33781;BME280;20097;50.832;19.100;2023-08-24T06:45:41;98578.47;;;19.67;98.38
33781;BME280;20097;50.832;19.100;2023-08-24T06:50:47;98580.97;;;19.92;97.28
33781;BME280;20097;50.832;19.100;2023-08-24T06:55:54;98575.31;;;20.18;99.46
33781;BME280;20097;50.832;19.100;2023-08-24T07:00:58;98582.16;;;20.37;96.25
33781;BME280;20097;50.832;19.100;2023-08-24T07:06:06;98571.22;;;20.57;96.33
33781;BME280;20097;50.832;19.100;2023-08-24T07:11:11;98573.28;;;20.78;96.58
33781;BME280;20097;50.832;19.100;2023-08-24T07:16:17;98574.16;;;20.95;94.23
33781;BME280;20097;50.832;19.100;2023-08-24T07:21:22;98578.13;;;21.15;90.62
33781;BME280;20097;50.832;19.100;2023-08-24T07:26:27;98585.13;;;21.33;84.36
33781;BME280;20097;50.832;19.100;2023-08-24T07:31:33;98578.09;;;21.55;85.10
33781;BME280;20097;50.832;19.100;2023-08-24T07:36:42;98576.06;;;21.73;82.99
33781;BME280;20097;50.832;19.100;2023-08-24T07:41:47;98572.44;;;21.91;81.82
33781;BME280;20097;50.832;19.100;2023-08-24T07:46:51;98574.78;;;22.04;74.97
33781;BME280;20097;50.832;19.100;2023-08-24T07:51:56;98573.31;;;22.25;76.97
33781;BME280;20097;50.832;19.100;2023-08-24T07:57:01;98576.66;;;22.37;74.87
33781;BME280;20097;50.832;19.100;2023-08-24T08:02:05;98585.25;;;22.55;75.24
33781;BME280;20097;50.832;19.100;2023-08-24T08:07:12;98582.03;;;22.70;71.21
33781;BME280;20097;50.832;19.100;2023-08-24T08:12:16;98583.09;;;22.90;66.03
33781;BME280;20097;50.832;19.100;2023-08-24T08:17:20;98584.13;;;23.06;63.90
33781;BME280;20097;50.832;19.100;2023-08-24T08:22:27;98579.47;;;23.18;65.35
33781;BME280;20097;50.832;19.100;2023-08-24T08:27:31;98580.88;;;23.42;61.01
33781;BME280;20097;50.832;19.100;2023-08-24T08:32:36;98581.31;;;23.56;60.36
33781;BME280;20097;50.832;19.100;2023-08-24T08:37:41;98580.34;;;23.67;59.57
33781;BME280;20097;50.832;19.100;2023-08-24T08:42:45;98576.19;;;23.76;56.70
33781;BME280;20097;50.832;19.100;2023-08-24T08:47:50;98581.13;;;23.89;56.64
33781;BME280;20097;50.832;19.100;2023-08-24T08:52:55;98583.97;;;24.04;57.01
33781;BME280;20097;50.832;19.100;2023-08-24T08:58:01;98574.59;;;24.28;55.16
33781;BME280;20097;50.832;19.100;2023-08-24T09:03:06;98572.28;;;24.42;54.88
33781;BME280;20097;50.832;19.100;2023-08-24T09:08:13;98575.66;;;24.64;56.15
33781;BME280;20097;50.832;19.100;2023-08-24T09:13:17;98590.50;;;24.50;52.87
33781;BME280;20097;50.832;19.100;2023-08-24T09:18:22;98576.63;;;24.84;53.20
33781;BME280;20097;50.832;19.100;2023-08-24T09:23:43;98573.06;;;25.20;53.30
33781;BME280;20097;50.832;19.100;2023-08-24T09:28:47;98569.22;;;25.01;55.82
33781;BME280;20097;50.832;19.100;2023-08-24T09:33:51;98567.19;;;25.18;56.40
33781;BME280;20097;50.832;19.100;2023-08-24T09:39:05;98573.22;;;25.55;54.41
33781;BME280;20097;50.832;19.100;2023-08-24T09:44:10;98579.09;;;25.47;53.26
33781;BME280;20097;50.832;19.100;2023-08-24T09:49:14;98571.88;;;25.48;54.95
33781;BME280;20097;50.832;19.100;2023-08-24T09:54:20;98565.47;;;25.49;54.78
33781;BME280;20097;50.832;19.100;2023-08-24T09:59:26;98556.19;;;25.87;52.98
33781;BME280;20097;50.832;19.100;2023-08-24T10:04:33;98549.75;;;25.83;53.01
33781;BME280;20097;50.832;19.100;2023-08-24T10:09:44;98550.31;;;25.90;52.53
33781;BME280;20097;50.832;19.100;2023-08-24T10:14:52;98549.00;;;26.07;52.98
33781;BME280;20097;50.832;19.100;2023-08-24T10:19:58;98550.63;;;26.38;52.47
33781;BME280;20097;50.832;19.100;2023-08-24T10:25:06;98547.66;;;26.40;52.81
33781;BME280;20097;50.832;19.100;2023-08-24T10:30:11;98540.44;;;26.50;51.78
33781;BME280;20097;50.832;19.100;2023-08-24T10:35:16;98544.44;;;26.63;54.47
33781;BME280;20097;50.832;19.100;2023-08-24T10:40:32;98544.44;;;26.53;53.15
33781;BME280;20097;50.832;19.100;2023-08-24T10:45:54;98545.13;;;27.14;52.24
33781;BME280;20097;50.832;19.100;2023-08-24T10:51:17;98547.44;;;27.45;51.06
33781;BME280;20097;50.832;19.100;2023-08-24T10:56:34;98535.91;;;27.45;50.71
33781;BME280;20097;50.832;19.100;2023-08-24T11:01:41;98524.34;;;27.54;49.46
33781;BME280;20097;50.832;19.100;2023-08-24T11:06:53;98510.03;;;28.07;50.57
33781;BME280;20097;50.832;19.100;2023-08-24T11:12:01;98513.38;;;28.28;49.89
33781;BME280;20097;50.832;19.100;2023-08-24T11:17:17;98514.91;;;28.63;48.30
33781;BME280;20097;50.832;19.100;2023-08-24T11:22:22;98512.13;;;29.20;50.91
33781;BME280;20097;50.832;19.100;2023-08-24T11:27:29;98499.50;;;29.20;47.66
33781;BME280;20097;50.832;19.100;2023-08-24T11:32:33;98490.97;;;29.13;46.79
33781;BME280;20097;50.832;19.100;2023-08-24T11:37:37;98491.78;;;29.14;49.13
33781;BME280;20097;50.832;19.100;2023-08-24T11:42:42;98488.09;;;28.29;48.69
33781;BME280;20097;50.832;19.100;2023-08-24T11:47:47;98475.94;;;27.74;50.21
33781;BME280;20097;50.832;19.100;2023-08-24T11:52:52;98484.22;;;28.40;48.87
33781;BME280;20097;50.832;19.100;2023-08-24T11:57:58;98482.28;;;28.51;48.93
33781;BME280;20097;50.832;19.100;2023-08-24T12:03:03;98476.69;;;28.42;50.36
33781;BME280;20097;50.832;19.100;2023-08-24T12:08:07;98482.34;;;28.93;47.67
33781;BME280;20097;50.832;19.100;2023-08-24T12:13:16;98468.03;;;29.39;49.09
33781;BME280;20097;50.832;19.100;2023-08-24T12:18:21;98478.66;;;30.19;46.62
33781;BME280;20097;50.832;19.100;2023-08-24T12:23:26;98466.03;;;30.01;45.24
33781;BME280;20097;50.832;19.100;2023-08-24T12:28:32;98464.38;;;30.50;46.12
33781;BME280;20097;50.832;19.100;2023-08-24T12:33:37;98449.25;;;30.82;45.70
33781;BME280;20097;50.832;19.100;2023-08-24T12:38:41;98450.41;;;30.75;43.39
33781;BME280;20097;50.832;19.100;2023-08-24T12:43:50;98452.91;;;30.31;43.94
33781;BME280;20097;50.832;19.100;2023-08-24T12:48:54;98445.19;;;30.38;45.51
33781;BME280;20097;50.832;19.100;2023-08-24T12:53:58;98445.94;;;29.61;44.92
33781;BME280;20097;50.832;19.100;2023-08-24T12:59:03;98446.94;;;28.86;46.90
33781;BME280;20097;50.832;19.100;2023-08-24T13:04:08;98434.88;;;28.36;48.32
33781;BME280;20097;50.832;19.100;2023-08-24T13:09:12;98422.59;;;28.01;51.90
33781;BME280;20097;50.832;19.100;2023-08-24T13:14:18;98402.53;;;28.22;54.59
33781;BME280;20097;50.832;19.100;2023-08-24T13:19:24;98392.09;;;28.87;52.32
33781;BME280;20097;50.832;19.100;2023-08-24T13:24:28;98399.13;;;29.43;48.25
33781;BME280;20097;50.832;19.100;2023-08-24T13:29:34;98411.13;;;29.51;46.85
33781;BME280;20097;50.832;19.100;2023-08-24T13:34:38;98395.28;;;29.31;46.32
33781;BME280;20097;50.832;19.100;2023-08-24T13:39:43;98394.53;;;29.63;47.61
33781;BME280;20097;50.832;19.100;2023-08-24T13:44:49;98403.72;;;29.43;47.24
33781;BME280;20097;50.832;19.100;2023-08-24T13:49:53;98397.28;;;30.22;44.59
33781;BME280;20097;50.832;19.100;2023-08-24T13:54:57;98403.44;;;30.82;45.07
33781;BME280;20097;50.832;19.100;2023-08-24T14:00:16;98399.03;;;31.35;45.42
33781;BME280;20097;50.832;19.100;2023-08-24T14:05:21;98403.03;;;31.59;42.99
33781;BME280;20097;50.832;19.100;2023-08-24T14:10:25;98405.28;;;31.66;42.83
33781;BME280;20097;50.832;19.100;2023-08-24T14:15:31;98398.38;;;31.95;42.35
33781;BME280;20097;50.832;19.100;2023-08-24T14:20:35;98397.13;;;32.01;42.42
33781;BME280;20097;50.832;19.100;2023-08-24T14:25:40;98400.19;;;32.08;41.51
33781;BME280;20097;50.832;19.100;2023-08-24T14:30:45;98396.31;;;30.45;43.97
33781;BME280;20097;50.832;19.100;2023-08-24T14:35:50;98384.16;;;29.37;46.97
33781;BME280;20097;50.832;19.100;2023-08-24T14:40:54;98381.28;;;29.98;46.46
33781;BME280;20097;50.832;19.100;2023-08-24T14:46:00;98374.41;;;29.92;46.79
33781;BME280;20097;50.832;19.100;2023-08-24T14:51:05;98391.03;;;30.40;44.14
33781;BME280;20097;50.832;19.100;2023-08-24T14:56:09;98385.41;;;31.04;43.67
33781;BME280;20097;50.832;19.100;2023-08-24T15:01:15;98378.59;;;31.07;44.04
33781;BME280;20097;50.832;19.100;2023-08-24T15:06:20;98362.16;;;31.30;42.94
33781;BME280;20097;50.832;19.100;2023-08-24T15:11:24;98370.50;;;31.07;44.15
33781;BME280;20097;50.832;19.100;2023-08-24T15:16:31;98368.59;;;30.85;46.05
33781;BME280;20097;50.832;19.100;2023-08-24T15:21:35;98361.38;;;30.80;44.36
33781;BME280;20097;50.832;19.100;2023-08-24T15:26:42;98347.97;;;29.94;46.37
33781;BME280;20097;50.832;19.100;2023-08-24T15:31:48;98342.25;;;29.69;46.93
33781;BME280;20097;50.832;19.100;2023-08-24T15:36:53;98329.44;;;28.91;48.81
33781;BME280;20097;50.832;19.100;2023-08-24T15:41:58;98337.34;;;28.83;47.57
33781;BME280;20097;50.832;19.100;2023-08-24T15:47:04;98304.16;;;28.32;50.13
33781;BME280;20097;50.832;19.100;2023-08-24T15:52:10;98296.66;;;28.10;49.15
33781;BME280;20097;50.832;19.100;2023-08-24T15:57:14;98284.00;;;27.58;53.40
33781;BME280;20097;50.832;19.100;2023-08-24T16:02:20;98287.97;;;26.98;53.14
33781;BME280;20097;50.832;19.100;2023-08-24T16:07:27;98287.03;;;26.79;52.16
33781;BME280;20097;50.832;19.100;2023-08-24T16:12:37;98279.63;;;26.56;55.18
33781;BME280;20097;50.832;19.100;2023-08-24T16:17:50;98287.47;;;26.43;55.90
33781;BME280;20097;50.832;19.100;2023-08-24T16:22:55;98279.72;;;26.41;55.18
33781;BME280;20097;50.832;19.100;2023-08-24T16:27:59;98278.28;;;26.05;55.08
33781;BME280;20097;50.832;19.100;2023-08-24T16:33:05;98281.25;;;25.79;63.54
33781;BME280;20097;50.832;19.100;2023-08-24T16:38:09;98279.97;;;25.66;59.61
33781;BME280;20097;50.832;19.100;2023-08-24T16:43:13;98278.13;;;25.51;59.06
33781;BME280;20097;50.832;19.100;2023-08-24T16:48:21;98280.75;;;25.11;69.98
33781;BME280;20097;50.832;19.100;2023-08-24T16:53:26;98264.66;;;24.66;72.42
33781;BME280;20097;50.832;19.100;2023-08-24T16:58:31;98256.34;;;24.43;75.95
33781;BME280;20097;50.832;19.100;2023-08-24T17:03:37;98265.06;;;24.13;83.82
33781;BME280;20097;50.832;19.100;2023-08-24T17:08:41;98253.09;;;23.74;80.78
33781;BME280;20097;50.832;19.100;2023-08-24T17:13:45;98253.81;;;23.59;86.65
33781;BME280;20097;50.832;19.100;2023-08-24T17:18:51;98253.28;;;23.26;89.09
33781;BME280;20097;50.832;19.100;2023-08-24T17:23:55;98254.44;;;23.03;83.77
33781;BME280;20097;50.832;19.100;2023-08-24T17:29:01;98260.84;;;22.75;82.77
33781;BME280;20097;50.832;19.100;2023-08-24T17:34:07;98273.88;;;22.50;85.52
33781;BME280;20097;50.832;19.100;2023-08-24T17:39:14;98278.72;;;22.32;87.91
33781;BME280;20097;50.832;19.100;2023-08-24T17:44:18;98292.06;;;22.15;91.86
33781;BME280;20097;50.832;19.100;2023-08-24T17:49:26;98287.88;;;21.98;90.47
33781;BME280;20097;50.832;19.100;2023-08-24T17:54:30;98295.81;;;21.76;93.62
33781;BME280;20097;50.832;19.100;2023-08-24T17:59:37;98303.78;;;21.59;95.24
33781;BME280;20097;50.832;19.100;2023-08-24T18:04:43;98300.56;;;21.41;97.65
33781;BME280;20097;50.832;19.100;2023-08-24T18:09:53;98294.00;;;21.27;100.00
33781;BME280;20097;50.832;19.100;2023-08-24T18:14:58;98301.03;;;21.05;100.00
33781;BME280;20097;50.832;19.100;2023-08-24T18:20:05;98314.69;;;20.97;100.00
33781;BME280;20097;50.832;19.100;2023-08-24T18:25:10;98318.53;;;20.89;100.00
33781;BME280;20097;50.832;19.100;2023-08-24T18:30:22;98320.56;;;20.71;100.00
33781;BME280;20097;50.832;19.100;2023-08-24T18:35:50;98315.75;;;20.68;100.00
33781;BME280;20097;50.832;19.100;2023-08-24T18:40:57;98311.88;;;20.59;100.00
33781;BME280;20097;50.832;19.100;2023-08-24T18:46:02;98305.31;;;20.50;100.00
33781;BME280;20097;50.832;19.100;2023-08-24T18:51:13;98298.09;;;20.33;100.00
33781;BME280;20097;50.832;19.100;2023-08-24T18:56:25;98294.34;;;20.29;100.00
33781;BME280;20097;50.832;19.100;2023-08-24T19:01:29;98300.44;;;20.18;100.00
33781;BME280;20097;50.832;19.100;2023-08-24T19:06:40;98304.38;;;20.16;100.00
33781;BME280;20097;50.832;19.100;2023-08-24T19:11:49;98304.47;;;20.09;100.00
33781;BME280;20097;50.832;19.100;2023-08-24T19:16:54;98297.16;;;19.88;100.00
33781;BME280;20097;50.832;19.100;2023-08-24T19:22:01;98290.44;;;19.86;100.00
33781;BME280;20097;50.832;19.100;2023-08-24T19:27:07;98286.56;;;19.77;100.00
33781;BME280;20097;50.832;19.100;2023-08-24T19:32:12;98285.63;;;19.71;100.00
33781;BME280;20097;50.832;19.100;2023-08-24T19:37:21;98276.31;;;19.57;100.00
33781;BME280;20097;50.832;19.100;2023-08-24T19:42:27;98271.97;;;19.51;100.00
33781;BME280;20097;50.832;19.100;2023-08-24T19:47:32;98278.97;;;19.34;100.00
33781;BME280;20097;50.832;19.100;2023-08-24T19:52:39;98271.69;;;19.18;100.00
33781;BME280;20097;50.832;19.100;2023-08-24T19:57:47;98266.38;;;19.18;100.00
33781;BME280;20097;50.832;19.100;2023-08-24T20:02:51;98261.19;;;19.11;100.00
33781;BME280;20097;50.832;19.100;2023-08-24T20:07:59;98261.53;;;19.03;100.00
33781;BME280;20097;50.832;19.100;2023-08-24T20:13:03;98262.09;;;18.94;100.00
33781;BME280;20097;50.832;19.100;2023-08-24T20:18:07;98263.00;;;18.88;100.00
33781;BME280;20097;50.832;19.100;2023-08-24T20:23:13;98250.44;;;18.83;100.00
33781;BME280;20097;50.832;19.100;2023-08-24T20:28:17;98258.59;;;18.82;100.00
33781;BME280;20097;50.832;19.100;2023-08-24T20:33:21;98262.63;;;18.73;100.00
33781;BME280;20097;50.832;19.100;2023-08-24T20:38:27;98270.56;;;18.73;100.00
33781;BME280;20097;50.832;19.100;2023-08-24T20:43:32;98263.81;;;18.59;100.00
33781;BME280;20097;50.832;19.100;2023-08-24T20:48:36;98247.41;;;18.57;100.00
33781;BME280;20097;50.832;19.100;2023-08-24T20:53:42;98256.34;;;18.56;100.00
33781;BME280;20097;50.832;19.100;2023-08-24T20:58:49;98255.75;;;18.42;100.00
33781;BME280;20097;50.832;19.100;2023-08-24T21:03:53;98245.78;;;18.38;100.00
33781;BME280;20097;50.832;19.100;2023-08-24T21:08:59;98237.53;;;18.34;100.00
33781;BME280;20097;50.832;19.100;2023-08-24T21:14:06;98245.41;;;18.23;100.00
33781;BME280;20097;50.832;19.100;2023-08-24T21:19:10;98239.31;;;18.22;100.00
33781;BME280;20097;50.832;19.100;2023-08-24T21:24:17;98228.50;;;18.24;100.00
33781;BME280;20097;50.832;19.100;2023-08-24T21:29:21;98215.97;;;18.19;100.00
33781;BME280;20097;50.832;19.100;2023-08-24T21:34:25;98220.31;;;18.14;100.00
33781;BME280;20097;50.832;19.100;2023-08-24T21:39:31;98221.28;;;18.01;100.00
33781;BME280;20097;50.832;19.100;2023-08-24T21:44:35;98206.25;;;18.02;100.00
33781;BME280;20097;50.832;19.100;2023-08-24T21:49:39;98204.50;;;17.96;100.00
33781;BME280;20097;50.832;19.100;2023-08-24T21:54:45;98188.41;;;17.97;100.00
33781;BME280;20097;50.832;19.100;2023-08-24T21:59:49;98186.91;;;17.90;100.00
33781;BME280;20097;50.832;19.100;2023-08-24T22:05:12;98179.72;;;17.78;100.00
33781;BME280;20097;50.832;19.100;2023-08-24T22:10:36;98188.66;;;17.77;100.00
33781;BME280;20097;50.832;19.100;2023-08-24T22:15:41;98186.31;;;17.69;100.00
33781;BME280;20097;50.832;19.100;2023-08-24T22:20:46;98172.19;;;17.64;100.00
33781;BME280;20097;50.832;19.100;2023-08-24T22:25:52;98155.41;;;17.58;100.00
33781;BME280;20097;50.832;19.100;2023-08-24T22:30:56;98145.28;;;17.55;100.00
33781;BME280;20097;50.832;19.100;2023-08-24T22:36:00;98133.13;;;17.54;100.00
33781;BME280;20097;50.832;19.100;2023-08-24T22:41:07;98133.47;;;17.58;100.00
33781;BME280;20097;50.832;19.100;2023-08-24T22:46:11;98124.63;;;17.52;100.00
33781;BME280;20097;50.832;19.100;2023-08-24T22:51:16;98124.63;;;17.52;100.00
33781;BME280;20097;50.832;19.100;2023-08-24T22:56:21;98126.34;;;17.58;100.00
33781;BME280;20097;50.832;19.100;2023-08-24T23:01:25;98119.47;;;17.57;100.00
33781;BME280;20097;50.832;19.100;2023-08-24T23:06:45;98117.00;;;17.62;100.00
33781;BME280;20097;50.832;19.100;2023-08-24T23:11:51;98114.56;;;17.61;100.00
33781;BME280;20097;50.832;19.100;2023-08-24T23:16:55;98125.91;;;17.61;100.00
33781;BME280;20097;50.832;19.100;2023-08-24T23:22:00;98135.09;;;17.59;100.00
33781;BME280;20097;50.832;19.100;2023-08-24T23:27:06;98149.44;;;17.63;100.00
33781;BME280;20097;50.832;19.100;2023-08-24T23:32:11;98147.47;;;17.58;100.00
33781;BME280;20097;50.832;19.100;2023-08-24T23:37:15;98146.41;;;17.48;100.00
33781;BME280;20097;50.832;19.100;2023-08-24T23:42:20;98146.22;;;17.43;100.00
33781;BME280;20097;50.832;19.100;2023-08-24T23:47:24;98140.41;;;17.34;100.00
33781;BME280;20097;50.832;19.100;2023-08-24T23:52:28;98139.69;;;17.27;100.00
33781;BME280;20097;50.832;19.100;2023-08-24T23:57:34;98155.06;;;17.30;100.00
